Knife Falls, Minnesota
Current Conditions -  °F | °C
As of 8:36 AM on Saturday 20 Dec 2014 (Local Time) from KCOQ Reporting Station
Haze Haze  
Wind Chill: 21°   Ceiling: 800
Heat Index: 27°   Visibility: 5mi
Dew Point: 25°   Wind: 5mph
Humidity: 93%   Direction: 140°SE
Pressure: 30.11"   Gusts: NA
Location:  46.7232°N, 92.5588°W
Report Text: KCOQ 201436Z AUTO 14004KT 5SM BR OVC008 M03/M04 A3011 RMK AO2
Loading
Personal Weather Stations






























Interactive Weather Map New forecast layout! Learn more

10-Day Weather Forecast

Advertisements
Track Severe Weather on mobile